createdAt,value
2023-04-20T00:02:21.770Z,1.00
2023-04-20T00:04:50.098Z,1.00
2023-04-20T00:07:19.656Z,1.00
2023-04-20T00:09:49.158Z,1.00
2023-04-20T00:12:20.763Z,1.00
2023-04-20T00:14:49.011Z,1.00
2023-04-20T00:17:18.310Z,1.00
2023-04-20T00:19:47.304Z,1.00
2023-04-20T00:22:18.439Z,1.00
2023-04-20T00:24:47.534Z,1.00
2023-04-20T00:27:15.616Z,1.00
2023-04-20T00:29:46.977Z,1.00
2023-04-20T00:32:15.036Z,1.00
2023-04-20T00:34:45.059Z,1.00
2023-04-20T00:37:16.249Z,1.00
2023-04-20T00:39:47.406Z,1.00
2023-04-20T00:42:16.647Z,1.00
2023-04-20T00:44:46.485Z,1.00
2023-04-20T00:47:15.860Z,1.00
2023-04-20T00:49:45.420Z,1.00
2023-04-20T00:52:15.982Z,1.00
2023-04-20T00:54:45.711Z,1.00
2023-04-20T00:57:15.100Z,1.00
2023-04-20T00:59:43.263Z,1.00
2023-04-20T01:02:12.992Z,1.00
2023-04-20T01:04:41.293Z,1.00
2023-04-20T01:07:09.411Z,1.00
2023-04-20T01:09:40.262Z,1.00
2023-04-20T01:12:08.772Z,1.00
2023-04-20T01:14:36.833Z,1.00
2023-04-20T01:17:06.897Z,1.00
2023-04-20T01:19:38.790Z,1.00
2023-04-20T01:22:08.100Z,1.00
2023-04-20T01:24:37.521Z,1.00
2023-04-20T01:27:05.756Z,1.00
2023-04-20T01:29:34.415Z,1.00
2023-04-20T01:32:02.581Z,1.00
2023-04-20T01:34:31.990Z,1.00
2023-04-20T01:37:02.226Z,1.00
2023-04-20T01:39:33.505Z,1.00
2023-04-20T01:42:03.199Z,1.00
2023-04-20T01:44:33.489Z,1.00
2023-04-20T01:47:01.751Z,1.00
2023-04-20T01:49:29.914Z,1.00
2023-04-20T01:51:59.362Z,1.00
2023-04-20T01:54:27.674Z,1.00
2023-04-20T01:56:56.468Z,1.00
2023-04-20T01:59:26.884Z,1.00
2023-04-20T02:01:56.334Z,1.00
2023-04-20T02:04:26.861Z,56.40
2023-04-20T02:06:55.254Z,97.50
2023-04-20T02:10:09.185Z,82.10
2023-04-20T02:12:39.433Z,40.40
2023-04-20T02:15:11.566Z,89.60
2023-04-20T02:17:41.139Z,30.90
2023-04-20T02:20:14.298Z,8.40
2023-04-20T02:22:42.306Z,27.60
2023-04-20T02:25:11.276Z,1.00
2023-04-20T02:27:39.469Z,1.00
2023-04-20T02:30:16.070Z,1.00
2023-04-20T02:32:47.815Z,1.00
2023-04-20T02:35:15.929Z,99.90
2023-04-20T02:37:45.576Z,99.90
2023-04-20T02:40:15.972Z,1.00
2023-04-20T02:42:45.344Z,1.00
2023-04-20T02:45:13.444Z,1.00
2023-04-20T02:47:48.809Z,1.00
2023-04-20T02:50:18.780Z,1.00
2023-04-20T02:52:47.019Z,1.00
2023-04-20T02:55:19.124Z,99.90
2023-04-20T02:57:47.281Z,1.00
2023-04-20T03:00:18.664Z,20.50
2023-04-20T03:02:49.826Z,73.80
2023-04-20T03:05:24.184Z,99.90
2023-04-20T03:07:52.304Z,52.80
2023-04-20T03:10:26.176Z,1.00
2023-04-20T03:12:57.448Z,1.00
2023-04-20T03:15:25.922Z,1.00
2023-04-20T03:17:57.999Z,1.00
2023-04-20T03:20:27.555Z,1.00
2023-04-20T03:22:56.717Z,1.00
2023-04-20T03:25:24.963Z,99.90
2023-04-20T03:27:56.095Z,99.90
2023-04-20T03:33:33.430Z,99.90
2023-04-20T03:36:01.595Z,99.90
2023-04-20T03:38:32.274Z,99.90
2023-04-20T03:41:00.346Z,99.90
2023-04-20T03:43:30.633Z,99.90
2023-04-20T03:46:27.865Z,99.90
2023-04-20T03:49:00.476Z,99.90
2023-04-20T03:51:28.752Z,99.90
2023-04-20T03:53:56.924Z,99.90
2023-04-20T03:56:27.602Z,99.90
2023-04-20T03:58:57.281Z,99.90
2023-04-20T04:01:40.692Z,99.90
2023-04-20T04:04:11.510Z,99.90
2023-04-20T04:06:45.529Z,99.90
2023-04-20T04:09:13.784Z,99.90
2023-04-20T04:11:42.823Z,99.90
2023-04-20T04:14:40.306Z,99.90
2023-04-20T04:17:09.070Z,99.90
2023-04-20T04:19:41.034Z,99.90
2023-04-20T04:22:10.064Z,99.90
2023-04-20T04:24:39.668Z,99.90
2023-04-20T04:27:14.313Z,99.90
2023-04-20T04:29:42.737Z,99.90
2023-04-20T04:32:11.924Z,99.90
2023-04-20T04:34:47.435Z,99.90
2023-04-20T04:37:47.533Z,99.90
2023-04-20T04:40:20.591Z,99.90
2023-04-20T04:42:51.019Z,99.90
2023-04-20T04:52:21.052Z,99.90
2023-04-20T04:54:54.115Z,99.90
2023-04-20T04:57:27.978Z,99.90
2023-04-20T04:59:56.343Z,99.90
2023-04-20T05:02:24.622Z,99.90
2023-04-20T05:04:53.038Z,99.90
2023-04-20T05:07:22.488Z,99.90
2023-04-20T05:09:50.862Z,99.90
2023-04-20T05:12:20.377Z,99.90
2023-04-20T05:14:48.697Z,99.90
2023-04-20T05:17:16.766Z,99.90
2023-04-20T05:19:45.112Z,99.90
2023-04-20T05:22:17.324Z,99.90
2023-04-20T05:24:47.122Z,99.90
2023-04-20T05:27:19.342Z,99.90
2023-04-20T05:29:49.146Z,99.90
2023-04-20T05:32:17.316Z,99.90
2023-04-20T05:34:49.788Z,99.90
2023-04-20T05:38:06.921Z,99.90
2023-04-20T05:41:00.298Z,99.90
2023-04-20T05:47:43.638Z,99.90
2023-04-20T05:50:12.051Z,96.30
2023-04-20T05:52:40.146Z,99.90
2023-04-20T05:55:12.216Z,99.90
2023-04-20T05:57:43.665Z,96.20
2023-04-20T06:00:37.926Z,73.70
2023-04-20T06:03:17.116Z,93.20
2023-04-20T06:05:55.605Z,74.10
2023-04-20T06:08:23.874Z,91.50
2023-04-20T06:10:56.149Z,88.00
2023-04-20T06:13:26.428Z,82.40
2023-04-20T06:15:54.621Z,66.40
2023-04-20T06:18:23.759Z,56.30
2023-04-20T06:20:51.950Z,62.80
2023-04-20T06:23:20.061Z,31.40
2023-04-20T06:25:48.327Z,45.70
2023-04-20T06:28:16.664Z,40.60
2023-04-20T06:30:48.565Z,28.90
2023-04-20T06:33:17.590Z,22.30
2023-04-20T06:35:45.740Z,11.00
2023-04-20T06:38:14.231Z,16.00
2023-04-20T06:41:17.868Z,20.30
2023-04-20T06:44:26.222Z,9.70
2023-04-20T06:46:56.476Z,1.00
2023-04-20T06:49:27.895Z,1.00
2023-04-20T06:51:56.323Z,1.00
2023-04-20T06:54:26.563Z,1.00
2023-04-20T06:56:55.498Z,1.00
2023-04-20T06:59:23.865Z,1.00
2023-04-20T07:01:52.452Z,1.00
2023-04-20T07:04:24.532Z,1.00
2023-04-20T07:06:54.129Z,1.00
2023-04-20T07:09:23.167Z,1.00
2023-04-20T07:11:51.995Z,1.00
2023-04-20T07:14:20.410Z,1.00
2023-04-20T07:20:31.781Z,1.00
2023-04-20T07:22:59.976Z,1.00
2023-04-20T07:25:28.108Z,1.00
2023-04-20T07:27:56.177Z,1.00
2023-04-20T07:30:25.103Z,1.00
2023-04-20T07:32:53.339Z,1.00
2023-04-20T07:35:21.658Z,1.00
2023-04-20T07:37:51.397Z,1.00
2023-04-20T07:40:19.548Z,1.00
2023-04-20T07:45:56.202Z,1.00
2023-04-20T07:48:24.700Z,1.00
2023-04-20T07:50:52.971Z,1.00
2023-04-20T07:53:22.497Z,1.00
2023-04-20T07:55:51.190Z,1.00
2023-04-20T07:58:19.463Z,1.00
2023-04-20T08:00:47.640Z,1.00
2023-04-20T08:03:16.433Z,1.00
2023-04-20T08:05:45.057Z,1.00
2023-04-20T08:08:14.828Z,1.00
2023-04-20T08:10:44.504Z,1.00
2023-04-20T08:13:12.777Z,1.00
2023-04-20T08:15:41.103Z,1.00
2023-04-20T08:18:09.462Z,1.00
2023-04-20T08:20:37.654Z,1.00
2023-04-20T08:23:06.022Z,1.00
2023-04-20T08:25:36.269Z,1.00
2023-04-20T08:28:09.084Z,1.00
2023-04-20T08:30:41.898Z,1.00
2023-04-20T08:33:10.274Z,1.00
2023-04-20T08:35:38.582Z,1.00
2023-04-20T08:38:06.920Z,1.00
2023-04-20T08:40:37.077Z,1.00
2023-04-20T08:43:07.275Z,1.00
2023-04-20T08:45:35.436Z,1.00
2023-04-20T08:48:09.531Z,1.00
2023-04-20T08:50:42.056Z,1.00
2023-04-20T08:53:10.875Z,1.00
2023-04-20T08:55:39.166Z,1.00
2023-04-20T08:58:08.719Z,1.00
2023-04-20T09:00:37.173Z,1.00
2023-04-20T09:03:06.640Z,1.00
2023-04-20T09:05:35.417Z,1.00
2023-04-20T09:08:13.056Z,1.00
2023-04-20T09:10:43.342Z,1.00
2023-04-20T09:13:23.021Z,1.00
2023-04-20T09:15:52.535Z,1.00
2023-04-20T09:18:56.052Z,1.00
2023-04-20T09:21:26.272Z,1.00
2023-04-20T09:23:58.849Z,1.00
2023-04-20T09:26:27.093Z,1.00
2023-04-20T09:28:58.641Z,1.00
2023-04-20T09:31:57.756Z,1.00
2023-04-20T09:34:58.616Z,1.00
2023-04-20T09:37:31.509Z,1.00
2023-04-20T09:40:01.760Z,1.00
2023-04-20T09:42:32.330Z,1.00
2023-04-20T09:45:03.191Z,1.00
2023-04-20T09:47:42.150Z,1.00
2023-04-20T09:50:24.798Z,1.00
2023-04-20T09:52:56.130Z,1.00
2023-04-20T09:55:26.406Z,1.00
2023-04-20T09:57:59.066Z,1.00
2023-04-20T10:00:28.799Z,1.00
2023-04-20T10:02:57.271Z,1.00
2023-04-20T10:05:35.836Z,1.00
2023-04-20T10:08:30.889Z,1.00
2023-04-20T10:10:59.276Z,1.00
2023-04-20T10:13:40.505Z,1.00
2023-04-20T10:16:21.455Z,1.00
2023-04-20T10:19:10.702Z,1.00
2023-04-20T10:21:47.607Z,1.00
2023-04-20T10:24:19.677Z,1.00
2023-04-20T10:26:48.989Z,1.00
2023-04-20T10:29:25.633Z,1.00
2023-04-20T10:31:57.244Z,1.00
2023-04-20T10:34:36.360Z,1.00
2023-04-20T10:37:14.484Z,1.00
2023-04-20T10:42:56.944Z,1.00
2023-04-20T10:45:36.535Z,1.00
2023-04-20T10:48:56.156Z,1.00
2023-04-20T10:55:02.935Z,1.00
2023-04-20T10:59:56.759Z,1.00
2023-04-20T11:02:33.928Z,1.00
2023-04-20T11:05:14.760Z,1.00
2023-04-20T11:07:55.795Z,1.00
2023-04-20T11:14:11.997Z,1.00
2023-04-20T11:16:50.719Z,1.00
2023-04-20T11:19:26.260Z,1.00
2023-04-20T11:21:55.166Z,1.00
2023-04-20T11:24:25.652Z,1.00
2023-04-20T11:26:55.437Z,1.00
2023-04-20T11:29:34.859Z,1.00
2023-04-20T11:32:09.097Z,1.00
2023-04-20T11:34:41.120Z,1.00
2023-04-20T11:37:13.135Z,1.00
2023-04-20T11:39:41.821Z,1.00
2023-04-20T11:42:11.777Z,1.00
2023-04-20T11:44:41.370Z,1.00
2023-04-20T11:47:13.486Z,1.00
2023-04-20T11:49:41.643Z,1.00
2023-04-20T11:52:09.855Z,1.00
2023-04-20T11:54:37.900Z,1.00
2023-04-20T11:57:06.347Z,1.00
2023-04-20T11:59:53.888Z,1.00
2023-04-20T12:02:24.301Z,1.00
2023-04-20T12:04:52.813Z,1.00
2023-04-20T12:07:23.378Z,1.00
2023-04-20T12:09:59.200Z,1.00
2023-04-20T12:12:27.621Z,1.00
2023-04-20T12:14:57.136Z,1.00
2023-04-20T12:17:50.679Z,1.00
2023-04-20T12:20:22.351Z,1.00
2023-04-20T12:22:51.821Z,1.00
2023-04-20T12:25:22.496Z,1.00
2023-04-20T12:27:51.810Z,1.00
2023-04-20T12:30:26.394Z,1.00
2023-04-20T12:32:59.255Z,1.00
2023-04-20T12:35:28.984Z,1.00
2023-04-20T12:37:57.287Z,1.00
2023-04-20T12:40:30.947Z,1.00
2023-04-20T12:43:18.894Z,1.00
2023-04-20T12:45:51.770Z,1.00
2023-04-20T12:48:23.001Z,1.00
2023-04-20T12:50:53.796Z,1.00
2023-04-20T12:53:30.405Z,1.00
2023-04-20T12:56:01.294Z,1.00
2023-04-20T12:58:33.283Z,1.00
2023-04-20T13:01:28.970Z,1.00
2023-04-20T13:04:26.321Z,1.00
2023-04-20T13:07:21.288Z,1.00
2023-04-20T13:09:49.388Z,1.00
2023-04-20T13:12:17.877Z,1.00
2023-04-20T13:14:50.105Z,1.00
2023-04-20T13:17:21.889Z,1.00
2023-04-20T13:23:15.444Z,1.00
2023-04-20T13:25:45.174Z,1.00
2023-04-20T13:28:35.375Z,1.00
2023-04-20T13:31:05.328Z,1.00
2023-04-20T13:33:35.970Z,1.00
2023-04-20T13:36:16.084Z,1.00
2023-04-20T13:38:47.376Z,1.00
2023-04-20T13:41:27.620Z,1.00
2023-04-20T13:44:04.200Z,1.00
2023-04-20T13:46:33.267Z,1.00
2023-04-20T13:49:06.974Z,1.00
2023-04-20T13:58:01.446Z,1.00
2023-04-20T14:00:32.100Z,1.00
2023-04-20T14:03:03.505Z,1.00
2023-04-20T14:06:01.417Z,1.00
2023-04-20T14:08:52.561Z,1.00
2023-04-20T14:11:32.930Z,1.00
2023-04-20T14:14:02.426Z,1.00
2023-04-20T14:16:31.260Z,1.00
2023-04-20T14:18:59.372Z,1.00
2023-04-20T14:21:29.161Z,1.00
2023-04-20T14:24:03.921Z,1.00
2023-04-20T14:27:06.358Z,1.00
2023-04-20T14:32:44.819Z,1.00
2023-04-20T14:35:20.793Z,1.00
2023-04-20T14:38:18.260Z,1.00
2023-04-20T14:40:52.698Z,1.00
2023-04-20T14:43:24.666Z,1.00
2023-04-20T14:45:52.884Z,1.00
2023-04-20T14:48:25.259Z,1.00
2023-04-20T14:50:55.274Z,1.00
2023-04-20T14:53:24.904Z,1.00
2023-04-20T14:56:09.643Z,1.00
2023-04-20T14:58:40.248Z,1.00
2023-04-20T15:01:11.331Z,1.00
2023-04-20T15:03:41.428Z,1.00
2023-04-20T15:06:14.821Z,1.00
2023-04-20T15:13:43.387Z,1.00
2023-04-20T15:19:49.752Z,1.00
2023-04-20T15:22:37.754Z,1.00
2023-04-20T15:25:08.202Z,1.00
2023-04-20T15:27:40.495Z,1.00
2023-04-20T15:30:15.355Z,1.00
2023-04-20T15:32:51.283Z,1.00
2023-04-20T15:35:22.001Z,1.00
2023-04-20T15:37:52.773Z,1.00
2023-04-20T15:40:50.046Z,1.00
2023-04-20T15:48:04.120Z,1.00
2023-04-20T15:50:43.662Z,1.00
2023-04-20T15:53:20.725Z,1.00
2023-04-20T15:55:49.806Z,1.00
2023-04-20T15:58:47.255Z,1.00
2023-04-20T16:01:35.342Z,1.00
2023-04-20T16:07:49.894Z,1.00
2023-04-20T16:10:59.542Z,1.00
2023-04-20T16:13:30.878Z,1.00
2023-04-20T16:20:20.625Z,1.00
2023-04-20T16:23:00.587Z,1.00
2023-04-20T16:25:30.049Z,1.00
2023-04-20T16:27:58.166Z,1.00
2023-04-20T16:30:50.234Z,1.00
2023-04-20T16:33:20.937Z,1.00
2023-04-20T16:42:15.125Z,1.00
2023-04-20T16:44:44.612Z,1.00
2023-04-20T16:47:14.125Z,1.00
2023-04-20T16:49:42.470Z,1.00
2023-04-20T16:52:10.712Z,1.00
2023-04-20T16:54:38.827Z,1.00
2023-04-20T16:57:25.995Z,1.00
2023-04-20T17:00:16.720Z,1.00
2023-04-20T17:02:59.104Z,1.00
2023-04-20T17:05:36.570Z,1.00
2023-04-20T17:08:19.047Z,1.00
2023-04-20T17:10:48.635Z,1.00
2023-04-20T17:13:27.923Z,1.00
2023-04-20T17:16:06.197Z,1.00
2023-04-20T17:18:46.614Z,1.00
2023-04-20T17:21:32.080Z,1.00
2023-04-20T17:24:05.371Z,1.00
2023-04-20T17:26:37.479Z,1.00
2023-04-20T17:29:08.546Z,1.00
2023-04-20T17:31:44.333Z,1.00
2023-04-20T17:34:21.081Z,1.00
2023-04-20T17:37:31.410Z,1.00
2023-04-20T17:40:05.147Z,1.00
2023-04-20T17:46:02.327Z,1.00
2023-04-20T17:51:40.823Z,1.00
2023-04-20T17:54:09.680Z,1.00
2023-04-20T17:56:37.764Z,1.00
2023-04-20T17:59:09.379Z,1.00
2023-04-20T18:01:37.571Z,1.00
2023-04-20T18:04:06.747Z,1.00
2023-04-20T18:06:35.344Z,1.00
2023-04-20T18:09:08.630Z,1.00
2023-04-20T18:11:37.309Z,1.00
2023-04-20T18:14:13.313Z,1.00
2023-04-20T18:16:42.166Z,1.00
2023-04-20T18:19:10.624Z,1.00
2023-04-20T18:21:38.677Z,1.00
2023-04-20T18:24:12.777Z,1.00
2023-04-20T18:26:49.301Z,1.00
2023-04-20T18:29:17.745Z,1.00
2023-04-20T18:31:49.014Z,1.00
2023-04-20T18:34:17.884Z,1.00
2023-04-20T18:36:46.389Z,1.00
2023-04-20T18:39:32.995Z,1.00
2023-04-20T18:42:02.296Z,1.00
2023-04-20T18:44:30.590Z,1.00
2023-04-20T18:46:59.109Z,1.00
2023-04-20T18:49:27.396Z,1.00
2023-04-20T18:52:02.158Z,1.00
2023-04-20T18:54:39.379Z,1.00
2023-04-20T18:57:08.892Z,1.00
2023-04-20T18:59:38.293Z,1.00
2023-04-20T19:02:06.588Z,1.00
2023-04-20T19:04:39.140Z,1.00
2023-04-20T19:07:09.974Z,1.00
2023-04-20T19:09:40.226Z,1.00
2023-04-20T19:12:08.302Z,1.00
2023-04-20T19:14:36.322Z,1.00
2023-04-20T19:17:06.838Z,1.00
2023-04-20T19:19:35.616Z,1.00
2023-04-20T19:22:04.359Z,1.00
2023-04-20T19:24:34.928Z,1.00
2023-04-20T19:27:04.609Z,1.00
2023-04-20T19:29:32.991Z,1.00
2023-04-20T19:32:01.427Z,1.00
2023-04-20T19:34:29.568Z,1.00
2023-04-20T19:36:58.721Z,1.00
2023-04-20T19:39:29.129Z,1.00
2023-04-20T19:41:58.763Z,1.00
2023-04-20T19:44:28.571Z,1.00
2023-04-20T19:46:56.656Z,1.00
2023-04-20T19:49:24.753Z,1.00
2023-04-20T19:51:53.342Z,1.00
2023-04-20T19:54:29.127Z,1.00
2023-04-20T19:56:57.771Z,1.00
2023-04-20T19:59:29.029Z,1.00
2023-04-20T20:01:57.204Z,1.00
2023-04-20T20:04:26.088Z,1.00
2023-04-20T20:06:54.398Z,1.00
2023-04-20T20:09:24.181Z,1.00
2023-04-20T20:11:52.526Z,1.00
2023-04-20T20:14:21.183Z,1.00
2023-04-20T20:16:50.833Z,1.00
2023-04-20T20:19:21.993Z,1.00
2023-04-20T20:21:53.382Z,1.00
2023-04-20T20:24:23.910Z,1.00
2023-04-20T20:26:54.120Z,1.00
2023-04-20T20:29:24.274Z,1.00
2023-04-20T20:31:55.105Z,1.00
2023-04-20T20:34:23.387Z,1.00
2023-04-20T20:36:52.881Z,1.00
2023-04-20T20:39:28.601Z,1.00
2023-04-20T20:41:57.300Z,1.00
2023-04-20T20:44:26.562Z,1.00
2023-04-20T20:46:56.128Z,1.00
2023-04-20T20:49:24.340Z,1.00
2023-04-20T20:51:53.225Z,1.00
2023-04-20T20:54:21.484Z,1.00
2023-04-20T20:56:49.859Z,1.00
2023-04-20T20:59:18.124Z,1.00
2023-04-20T21:01:52.328Z,1.00
2023-04-20T21:10:17.868Z,1.00
2023-04-20T21:12:46.206Z,1.00
2023-04-20T21:15:14.365Z,1.00
2023-04-20T21:17:42.660Z,1.00
2023-04-20T21:20:13.639Z,1.00
2023-04-20T21:22:41.858Z,1.00
2023-04-20T21:25:10.453Z,1.00
2023-04-20T21:27:39.167Z,1.00
2023-04-20T21:30:08.385Z,1.00
2023-04-20T21:32:36.475Z,1.00
2023-04-20T21:35:05.344Z,1.00
2023-04-20T21:37:34.836Z,1.00
2023-04-20T21:40:03.692Z,1.00
2023-04-20T21:42:31.857Z,1.00
2023-04-20T21:45:00.040Z,1.00
2023-04-20T21:47:28.156Z,1.00
2023-04-20T21:49:56.405Z,1.00
2023-04-20T21:52:25.012Z,1.00
2023-04-20T21:54:54.415Z,1.00
2023-04-20T21:57:22.672Z,1.00
2023-04-20T21:59:50.872Z,1.00
2023-04-20T22:02:19.102Z,1.00
2023-04-20T22:04:47.501Z,1.00
2023-04-20T22:07:18.153Z,1.00
2023-04-20T22:09:46.494Z,1.00
2023-04-20T22:12:18.091Z,1.00
2023-04-20T22:14:47.762Z,1.00
2023-04-20T22:17:17.803Z,1.00
2023-04-20T22:19:45.878Z,1.00
2023-04-20T22:22:13.922Z,1.00
2023-04-20T22:27:51.352Z,1.00
2023-04-20T22:30:19.973Z,1.00
2023-04-20T22:32:52.449Z,1.00
2023-04-20T22:35:38.443Z,1.00
2023-04-20T22:38:06.785Z,1.00
2023-04-20T22:40:36.737Z,1.00
2023-04-20T22:43:06.542Z,1.00
2023-04-20T22:45:34.635Z,1.00
2023-04-20T22:48:07.013Z,1.00
2023-04-20T22:50:40.956Z,1.00
2023-04-20T22:53:10.271Z,1.00
2023-04-20T22:55:39.868Z,1.00
2023-04-20T22:58:11.337Z,1.00
2023-04-20T23:00:44.327Z,1.00
2023-04-20T23:03:12.696Z,1.00
2023-04-20T23:05:44.505Z,1.00
2023-04-20T23:08:18.108Z,1.00
2023-04-20T23:10:47.396Z,1.00
2023-04-20T23:13:18.194Z,1.00
2023-04-20T23:15:46.365Z,1.00
2023-04-20T23:18:14.440Z,1.00
2023-04-20T23:20:42.655Z,1.00
2023-04-20T23:23:20.977Z,1.00
2023-04-20T23:25:49.095Z,1.00
2023-04-20T23:28:19.777Z,1.00
2023-04-20T23:30:49.571Z,1.00
2023-04-20T23:33:17.698Z,1.00
2023-04-20T23:35:47.499Z,1.00
2023-04-20T23:38:18.278Z,1.00
2023-04-20T23:40:47.545Z,1.00
2023-04-20T23:43:20.820Z,1.00
2023-04-20T23:45:49.026Z,1.00
2023-04-20T23:48:21.291Z,1.00
2023-04-20T23:50:52.163Z,1.00
2023-04-20T23:53:23.584Z,1.00
2023-04-20T23:55:56.085Z,1.00
2023-04-20T23:58:26.785Z,1.00
